sensor_id;sensor_type;location;lat;lon;timestamp;P1;durP1;ratioP1;P2;durP2;ratioP2
6193;SDS011;3130;41.564;23.280;2023-03-23T00:04:49;9.27;;;7.93;;
6193;SDS011;3130;41.564;23.280;2023-03-23T00:07:16;10.13;;;7.20;;
6193;SDS011;3130;41.564;23.280;2023-03-23T00:09:54;8.67;;;7.67;;
6193;SDS011;3130;41.564;23.280;2023-03-23T00:12:22;10.40;;;8.43;;
6193;SDS011;3130;41.564;23.280;2023-03-23T00:14:54;9.40;;;8.10;;
6193;SDS011;3130;41.564;23.280;2023-03-23T00:17:21;7.63;;;6.93;;
6193;SDS011;3130;41.564;23.280;2023-03-23T00:19:48;11.00;;;8.00;;
6193;SDS011;3130;41.564;23.280;2023-03-23T00:22:16;9.90;;;7.87;;
6193;SDS011;3130;41.564;23.280;2023-03-23T00:24:46;10.57;;;8.03;;
6193;SDS011;3130;41.564;23.280;2023-03-23T00:27:16;8.57;;;7.67;;
6193;SDS011;3130;41.564;23.280;2023-03-23T00:29:46;8.57;;;7.60;;
6193;SDS011;3130;41.564;23.280;2023-03-23T00:32:18;9.10;;;7.87;;
6193;SDS011;3130;41.564;23.280;2023-03-23T00:34:46;8.27;;;7.47;;
6193;SDS011;3130;41.564;23.280;2023-03-23T00:37:14;9.30;;;7.67;;
6193;SDS011;3130;41.564;23.280;2023-03-23T00:39:42;8.80;;;7.90;;
6193;SDS011;3130;41.564;23.280;2023-03-23T00:42:11;7.87;;;7.00;;
6193;SDS011;3130;41.564;23.280;2023-03-23T00:44:41;9.20;;;7.63;;
6193;SDS011;3130;41.564;23.280;2023-03-23T00:47:08;9.97;;;7.63;;
6193;SDS011;3130;41.564;23.280;2023-03-23T00:49:36;8.83;;;7.63;;
6193;SDS011;3130;41.564;23.280;2023-03-23T00:52:05;9.23;;;8.30;;
6193;SDS011;3130;41.564;23.280;2023-03-23T00:54:33;8.07;;;7.23;;
6193;SDS011;3130;41.564;23.280;2023-03-23T00:57:01;9.17;;;8.00;;
6193;SDS011;3130;41.564;23.280;2023-03-23T00:59:28;8.30;;;7.50;;
6193;SDS011;3130;41.564;23.280;2023-03-23T01:01:57;7.87;;;7.13;;
6193;SDS011;3130;41.564;23.280;2023-03-23T01:04:24;8.47;;;7.43;;
6193;SDS011;3130;41.564;23.280;2023-03-23T01:06:53;8.50;;;6.97;;
6193;SDS011;3130;41.564;23.280;2023-03-23T01:09:21;8.27;;;7.00;;
6193;SDS011;3130;41.564;23.280;2023-03-23T01:11:49;8.37;;;6.70;;
6193;SDS011;3130;41.564;23.280;2023-03-23T01:14:18;8.40;;;7.23;;
6193;SDS011;3130;41.564;23.280;2023-03-23T01:16:46;9.17;;;7.37;;
6193;SDS011;3130;41.564;23.280;2023-03-23T01:19:14;7.33;;;6.40;;
6193;SDS011;3130;41.564;23.280;2023-03-23T01:21:41;7.63;;;6.80;;
6193;SDS011;3130;41.564;23.280;2023-03-23T01:24:08;8.73;;;7.80;;
6193;SDS011;3130;41.564;23.280;2023-03-23T01:26:35;8.60;;;7.27;;
6193;SDS011;3130;41.564;23.280;2023-03-23T01:29:02;9.80;;;7.47;;
6193;SDS011;3130;41.564;23.280;2023-03-23T01:31:30;8.20;;;7.23;;
6193;SDS011;3130;41.564;23.280;2023-03-23T01:33:57;8.23;;;7.43;;
6193;SDS011;3130;41.564;23.280;2023-03-23T01:36:26;8.13;;;7.33;;
6193;SDS011;3130;41.564;23.280;2023-03-23T01:38:57;9.63;;;7.73;;
6193;SDS011;3130;41.564;23.280;2023-03-23T01:41:26;8.53;;;7.67;;
6193;SDS011;3130;41.564;23.280;2023-03-23T01:43:54;8.37;;;6.87;;
6193;SDS011;3130;41.564;23.280;2023-03-23T01:46:22;9.83;;;8.23;;
6193;SDS011;3130;41.564;23.280;2023-03-23T01:48:51;9.53;;;8.13;;
6193;SDS011;3130;41.564;23.280;2023-03-23T01:51:19;10.93;;;8.77;;
6193;SDS011;3130;41.564;23.280;2023-03-23T01:53:50;7.77;;;7.03;;
6193;SDS011;3130;41.564;23.280;2023-03-23T01:56:22;8.60;;;7.67;;
6193;SDS011;3130;41.564;23.280;2023-03-23T01:58:51;12.27;;;8.13;;
6193;SDS011;3130;41.564;23.280;2023-03-23T02:01:20;9.13;;;7.77;;
6193;SDS011;3130;41.564;23.280;2023-03-23T02:03:50;11.30;;;8.53;;
6193;SDS011;3130;41.564;23.280;2023-03-23T02:06:19;9.87;;;7.97;;
6193;SDS011;3130;41.564;23.280;2023-03-23T02:08:46;8.87;;;7.90;;
6193;SDS011;3130;41.564;23.280;2023-03-23T02:11:17;8.03;;;7.23;;
6193;SDS011;3130;41.564;23.280;2023-03-23T02:13:45;6.73;;;6.13;;
6193;SDS011;3130;41.564;23.280;2023-03-23T02:16:14;7.37;;;6.67;;
6193;SDS011;3130;41.564;23.280;2023-03-23T02:18:53;8.67;;;7.67;;
6193;SDS011;3130;41.564;23.280;2023-03-23T02:30:49;8.37;;;7.13;;
6193;SDS011;3130;41.564;23.280;2023-03-23T02:33:40;8.27;;;7.43;;
6193;SDS011;3130;41.564;23.280;2023-03-23T02:36:16;7.33;;;6.57;;
6193;SDS011;3130;41.564;23.280;2023-03-23T02:38:53;8.97;;;7.70;;
6193;SDS011;3130;41.564;23.280;2023-03-23T02:41:25;9.03;;;8.10;;
6193;SDS011;3130;41.564;23.280;2023-03-23T02:43:56;7.77;;;6.97;;
6193;SDS011;3130;41.564;23.280;2023-03-23T02:46:25;9.20;;;7.77;;
6193;SDS011;3130;41.564;23.280;2023-03-23T02:48:54;8.53;;;7.13;;
6193;SDS011;3130;41.564;23.280;2023-03-23T02:51:23;9.30;;;6.87;;
6193;SDS011;3130;41.564;23.280;2023-03-23T02:53:52;7.30;;;6.60;;
6193;SDS011;3130;41.564;23.280;2023-03-23T02:56:22;7.07;;;6.37;;
6193;SDS011;3130;41.564;23.280;2023-03-23T02:58:53;10.20;;;9.03;;
6193;SDS011;3130;41.564;23.280;2023-03-23T03:04:17;12.53;;;9.00;;
6193;SDS011;3130;41.564;23.280;2023-03-23T03:06:48;12.27;;;9.90;;
6193;SDS011;3130;41.564;23.280;2023-03-23T03:09:24;11.17;;;9.10;;
6193;SDS011;3130;41.564;23.280;2023-03-23T03:11:58;9.60;;;8.07;;
6193;SDS011;3130;41.564;23.280;2023-03-23T03:14:33;12.00;;;9.40;;
6193;SDS011;3130;41.564;23.280;2023-03-23T03:17:06;12.10;;;9.07;;
6193;SDS011;3130;41.564;23.280;2023-03-23T03:19:43;17.77;;;11.23;;
6193;SDS011;3130;41.564;23.280;2023-03-23T03:22:14;14.03;;;9.97;;
6193;SDS011;3130;41.564;23.280;2023-03-23T03:24:43;12.17;;;9.50;;
6193;SDS011;3130;41.564;23.280;2023-03-23T03:27:11;13.07;;;10.20;;
6193;SDS011;3130;41.564;23.280;2023-03-23T03:29:42;12.50;;;10.13;;
6193;SDS011;3130;41.564;23.280;2023-03-23T03:32:13;13.80;;;10.03;;
6193;SDS011;3130;41.564;23.280;2023-03-23T03:34:46;9.87;;;8.47;;
6193;SDS011;3130;41.564;23.280;2023-03-23T03:37:15;8.17;;;7.30;;
6193;SDS011;3130;41.564;23.280;2023-03-23T03:39:44;10.73;;;8.50;;
6193;SDS011;3130;41.564;23.280;2023-03-23T03:42:11;9.83;;;6.93;;
6193;SDS011;3130;41.564;23.280;2023-03-23T03:44:38;8.33;;;6.90;;
6193;SDS011;3130;41.564;23.280;2023-03-23T03:47:05;10.03;;;7.37;;
6193;SDS011;3130;41.564;23.280;2023-03-23T03:49:32;9.27;;;6.93;;
6193;SDS011;3130;41.564;23.280;2023-03-23T03:52:02;8.23;;;7.23;;
6193;SDS011;3130;41.564;23.280;2023-03-23T03:54:29;9.53;;;7.67;;
6193;SDS011;3130;41.564;23.280;2023-03-23T03:56:56;9.10;;;8.00;;
6193;SDS011;3130;41.564;23.280;2023-03-23T03:59:23;11.27;;;8.90;;
6193;SDS011;3130;41.564;23.280;2023-03-23T04:01:50;10.17;;;8.23;;
6193;SDS011;3130;41.564;23.280;2023-03-23T04:04:19;9.60;;;7.87;;
6193;SDS011;3130;41.564;23.280;2023-03-23T04:06:47;10.70;;;8.53;;
6193;SDS011;3130;41.564;23.280;2023-03-23T04:09:16;10.83;;;8.23;;
6193;SDS011;3130;41.564;23.280;2023-03-23T04:11:44;11.73;;;8.47;;
6193;SDS011;3130;41.564;23.280;2023-03-23T04:14:11;8.97;;;7.73;;
6193;SDS011;3130;41.564;23.280;2023-03-23T04:16:38;9.40;;;7.50;;
6193;SDS011;3130;41.564;23.280;2023-03-23T04:19:06;9.03;;;8.10;;
6193;SDS011;3130;41.564;23.280;2023-03-23T04:21:34;9.47;;;8.03;;
6193;SDS011;3130;41.564;23.280;2023-03-23T04:24:01;8.50;;;7.17;;
6193;SDS011;3130;41.564;23.280;2023-03-23T04:26:30;9.37;;;7.90;;
6193;SDS011;3130;41.564;23.280;2023-03-23T04:28:58;9.73;;;7.73;;
6193;SDS011;3130;41.564;23.280;2023-03-23T04:31:26;11.27;;;8.73;;
6193;SDS011;3130;41.564;23.280;2023-03-23T04:33:53;8.73;;;7.83;;
6193;SDS011;3130;41.564;23.280;2023-03-23T04:36:20;12.20;;;9.97;;
6193;SDS011;3130;41.564;23.280;2023-03-23T04:38:48;9.47;;;8.40;;
6193;SDS011;3130;41.564;23.280;2023-03-23T04:41:19;8.90;;;7.47;;
6193;SDS011;3130;41.564;23.280;2023-03-23T04:43:48;10.87;;;8.50;;
6193;SDS011;3130;41.564;23.280;2023-03-23T04:46:17;10.67;;;9.23;;
6193;SDS011;3130;41.564;23.280;2023-03-23T04:48:44;9.20;;;7.37;;
6193;SDS011;3130;41.564;23.280;2023-03-23T04:51:12;13.63;;;9.30;;
6193;SDS011;3130;41.564;23.280;2023-03-23T04:53:39;11.17;;;8.67;;
6193;SDS011;3130;41.564;23.280;2023-03-23T04:56:06;9.47;;;8.47;;
6193;SDS011;3130;41.564;23.280;2023-03-23T04:58:33;9.90;;;8.33;;
6193;SDS011;3130;41.564;23.280;2023-03-23T05:01:02;10.30;;;8.90;;
6193;SDS011;3130;41.564;23.280;2023-03-23T05:03:30;10.60;;;7.30;;
6193;SDS011;3130;41.564;23.280;2023-03-23T05:06:01;9.63;;;8.60;;
6193;SDS011;3130;41.564;23.280;2023-03-23T05:08:29;11.23;;;9.03;;
6193;SDS011;3130;41.564;23.280;2023-03-23T05:10:57;13.10;;;9.87;;
6193;SDS011;3130;41.564;23.280;2023-03-23T05:13:27;11.47;;;8.97;;
6193;SDS011;3130;41.564;23.280;2023-03-23T05:15:54;12.80;;;9.40;;
6193;SDS011;3130;41.564;23.280;2023-03-23T05:18:23;10.27;;;8.43;;
6193;SDS011;3130;41.564;23.280;2023-03-23T05:20:51;15.73;;;9.43;;
6193;SDS011;3130;41.564;23.280;2023-03-23T05:23:19;11.27;;;8.50;;
6193;SDS011;3130;41.564;23.280;2023-03-23T05:25:53;13.60;;;10.13;;
6193;SDS011;3130;41.564;23.280;2023-03-23T05:28:20;13.73;;;10.50;;
6193;SDS011;3130;41.564;23.280;2023-03-23T05:30:48;16.00;;;10.03;;
6193;SDS011;3130;41.564;23.280;2023-03-23T05:33:15;15.60;;;10.83;;
6193;SDS011;3130;41.564;23.280;2023-03-23T05:35:44;12.07;;;9.67;;
6193;SDS011;3130;41.564;23.280;2023-03-23T05:38:12;15.07;;;10.80;;
6193;SDS011;3130;41.564;23.280;2023-03-23T05:40:39;14.13;;;12.07;;
6193;SDS011;3130;41.564;23.280;2023-03-23T05:43:07;13.60;;;10.90;;
6193;SDS011;3130;41.564;23.280;2023-03-23T05:45:34;16.93;;;10.80;;
6193;SDS011;3130;41.564;23.280;2023-03-23T05:48:01;13.87;;;10.43;;
6193;SDS011;3130;41.564;23.280;2023-03-23T05:50:28;13.20;;;10.33;;
6193;SDS011;3130;41.564;23.280;2023-03-23T05:52:57;15.33;;;10.80;;
6193;SDS011;3130;41.564;23.280;2023-03-23T05:55:24;13.90;;;11.00;;
6193;SDS011;3130;41.564;23.280;2023-03-23T05:57:51;12.97;;;11.07;;
6193;SDS011;3130;41.564;23.280;2023-03-23T06:00:19;13.87;;;10.20;;
6193;SDS011;3130;41.564;23.280;2023-03-23T06:02:48;13.73;;;10.10;;
6193;SDS011;3130;41.564;23.280;2023-03-23T06:05:16;13.40;;;10.10;;
6193;SDS011;3130;41.564;23.280;2023-03-23T06:07:44;18.43;;;10.83;;
6193;SDS011;3130;41.564;23.280;2023-03-23T06:10:13;15.07;;;9.93;;
6193;SDS011;3130;41.564;23.280;2023-03-23T06:12:40;14.73;;;10.20;;
6193;SDS011;3130;41.564;23.280;2023-03-23T06:15:08;12.73;;;9.67;;
6193;SDS011;3130;41.564;23.280;2023-03-23T06:17:36;16.13;;;11.30;;
6193;SDS011;3130;41.564;23.280;2023-03-23T06:20:03;12.77;;;10.07;;
6193;SDS011;3130;41.564;23.280;2023-03-23T06:22:35;13.73;;;10.53;;
6193;SDS011;3130;41.564;23.280;2023-03-23T06:25:03;13.87;;;10.73;;
6193;SDS011;3130;41.564;23.280;2023-03-23T06:27:32;16.23;;;10.20;;
6193;SDS011;3130;41.564;23.280;2023-03-23T06:30:00;12.60;;;10.00;;
6193;SDS011;3130;41.564;23.280;2023-03-23T06:32:28;13.40;;;9.93;;
6193;SDS011;3130;41.564;23.280;2023-03-23T06:34:56;12.87;;;9.60;;
6193;SDS011;3130;41.564;23.280;2023-03-23T06:37:24;15.47;;;10.10;;
6193;SDS011;3130;41.564;23.280;2023-03-23T06:39:51;14.50;;;11.53;;
6193;SDS011;3130;41.564;23.280;2023-03-23T06:42:19;15.20;;;11.93;;
6193;SDS011;3130;41.564;23.280;2023-03-23T06:44:47;12.97;;;10.30;;
6193;SDS011;3130;41.564;23.280;2023-03-23T06:47:14;13.23;;;11.57;;
6193;SDS011;3130;41.564;23.280;2023-03-23T06:49:41;21.07;;;12.70;;
6193;SDS011;3130;41.564;23.280;2023-03-23T06:52:08;14.10;;;11.20;;
6193;SDS011;3130;41.564;23.280;2023-03-23T06:54:35;13.20;;;9.53;;
6193;SDS011;3130;41.564;23.280;2023-03-23T06:57:02;12.57;;;9.50;;
6193;SDS011;3130;41.564;23.280;2023-03-23T06:59:30;12.07;;;9.83;;
6193;SDS011;3130;41.564;23.280;2023-03-23T07:01:58;10.87;;;9.77;;
6193;SDS011;3130;41.564;23.280;2023-03-23T07:04:25;12.70;;;9.90;;
6193;SDS011;3130;41.564;23.280;2023-03-23T07:06:52;13.43;;;9.60;;
6193;SDS011;3130;41.564;23.280;2023-03-23T07:09:21;10.70;;;8.80;;
6193;SDS011;3130;41.564;23.280;2023-03-23T07:11:48;13.17;;;8.87;;
6193;SDS011;3130;41.564;23.280;2023-03-23T07:14:16;10.13;;;8.40;;
6193;SDS011;3130;41.564;23.280;2023-03-23T07:16:43;10.60;;;8.47;;
6193;SDS011;3130;41.564;23.280;2023-03-23T07:19:12;14.67;;;8.60;;
6193;SDS011;3130;41.564;23.280;2023-03-23T07:21:40;10.17;;;8.73;;
6193;SDS011;3130;41.564;23.280;2023-03-23T07:24:09;9.80;;;7.90;;
6193;SDS011;3130;41.564;23.280;2023-03-23T07:26:38;11.57;;;7.10;;
6193;SDS011;3130;41.564;23.280;2023-03-23T07:29:06;10.67;;;7.93;;
6193;SDS011;3130;41.564;23.280;2023-03-23T07:31:33;9.25;;;7.47;;
6193;SDS011;3130;41.564;23.280;2023-03-23T07:34:01;8.65;;;7.43;;
6193;SDS011;3130;41.564;23.280;2023-03-23T07:36:30;8.38;;;7.45;;
6193;SDS011;3130;41.564;23.280;2023-03-23T07:38:58;11.13;;;7.57;;
6193;SDS011;3130;41.564;23.280;2023-03-23T07:41:25;12.55;;;8.02;;
6193;SDS011;3130;41.564;23.280;2023-03-23T07:43:52;9.07;;;7.57;;
6193;SDS011;3130;41.564;23.280;2023-03-23T07:46:19;10.57;;;8.20;;
6193;SDS011;3130;41.564;23.280;2023-03-23T07:48:46;11.20;;;7.77;;
6193;SDS011;3130;41.564;23.280;2023-03-23T07:51:14;9.55;;;7.50;;
6193;SDS011;3130;41.564;23.280;2023-03-23T07:53:44;10.00;;;8.38;;
6193;SDS011;3130;41.564;23.280;2023-03-23T07:56:12;19.48;;;10.95;;
6193;SDS011;3130;41.564;23.280;2023-03-23T07:58:40;11.02;;;8.63;;
6193;SDS011;3130;41.564;23.280;2023-03-23T08:01:07;11.85;;;8.55;;
6193;SDS011;3130;41.564;23.280;2023-03-23T08:03:34;11.48;;;9.50;;
6193;SDS011;3130;41.564;23.280;2023-03-23T08:06:02;9.68;;;7.55;;
6193;SDS011;3130;41.564;23.280;2023-03-23T08:08:30;9.95;;;6.93;;
6193;SDS011;3130;41.564;23.280;2023-03-23T08:10:59;10.40;;;7.47;;
6193;SDS011;3130;41.564;23.280;2023-03-23T08:13:26;12.68;;;7.45;;
6193;SDS011;3130;41.564;23.280;2023-03-23T08:15:54;8.75;;;7.15;;
6193;SDS011;3130;41.564;23.280;2023-03-23T08:18:22;7.20;;;6.50;;
6193;SDS011;3130;41.564;23.280;2023-03-23T08:20:50;8.93;;;6.93;;
6193;SDS011;3130;41.564;23.280;2023-03-23T08:23:19;8.93;;;6.85;;
6193;SDS011;3130;41.564;23.280;2023-03-23T08:25:47;10.90;;;7.70;;
6193;SDS011;3130;41.564;23.280;2023-03-23T08:28:16;12.43;;;8.13;;
6193;SDS011;3130;41.564;23.280;2023-03-23T08:30:43;11.33;;;7.87;;
6193;SDS011;3130;41.564;23.280;2023-03-23T08:33:10;9.70;;;8.43;;
6193;SDS011;3130;41.564;23.280;2023-03-23T08:35:39;12.37;;;8.23;;
6193;SDS011;3130;41.564;23.280;2023-03-23T08:38:08;12.80;;;9.60;;
6193;SDS011;3130;41.564;23.280;2023-03-23T08:40:36;10.20;;;7.87;;
6193;SDS011;3130;41.564;23.280;2023-03-23T08:43:05;10.07;;;8.60;;
6193;SDS011;3130;41.564;23.280;2023-03-23T08:45:33;9.50;;;8.53;;
6193;SDS011;3130;41.564;23.280;2023-03-23T08:48:01;10.03;;;8.90;;
6193;SDS011;3130;41.564;23.280;2023-03-23T08:50:29;9.47;;;8.10;;
6193;SDS011;3130;41.564;23.280;2023-03-23T08:52:56;12.80;;;7.50;;
6193;SDS011;3130;41.564;23.280;2023-03-23T08:55:24;8.17;;;7.37;;
6193;SDS011;3130;41.564;23.280;2023-03-23T08:57:51;8.83;;;7.93;;
6193;SDS011;3130;41.564;23.280;2023-03-23T09:00:19;9.00;;;7.60;;
6193;SDS011;3130;41.564;23.280;2023-03-23T09:02:51;10.53;;;7.90;;
6193;SDS011;3130;41.564;23.280;2023-03-23T09:05:20;7.73;;;6.73;;
6193;SDS011;3130;41.564;23.280;2023-03-23T09:07:50;8.73;;;7.63;;
6193;SDS011;3130;41.564;23.280;2023-03-23T09:10:19;7.37;;;6.60;;
6193;SDS011;3130;41.564;23.280;2023-03-23T09:12:48;8.33;;;7.47;;
6193;SDS011;3130;41.564;23.280;2023-03-23T09:15:16;8.77;;;6.37;;
6193;SDS011;3130;41.564;23.280;2023-03-23T09:17:44;9.40;;;7.47;;
6193;SDS011;3130;41.564;23.280;2023-03-23T09:20:15;9.23;;;6.67;;
6193;SDS011;3130;41.564;23.280;2023-03-23T09:22:45;8.80;;;7.50;;
6193;SDS011;3130;41.564;23.280;2023-03-23T09:25:15;8.63;;;7.27;;
6193;SDS011;3130;41.564;23.280;2023-03-23T09:27:48;7.83;;;6.87;;
6193;SDS011;3130;41.564;23.280;2023-03-23T09:30:18;7.60;;;6.80;;
6193;SDS011;3130;41.564;23.280;2023-03-23T09:32:46;8.63;;;7.13;;
6193;SDS011;3130;41.564;23.280;2023-03-23T09:35:15;7.40;;;6.67;;
6193;SDS011;3130;41.564;23.280;2023-03-23T09:37:46;7.53;;;6.43;;
6193;SDS011;3130;41.564;23.280;2023-03-23T09:40:16;7.43;;;6.60;;
6193;SDS011;3130;41.564;23.280;2023-03-23T09:42:50;6.60;;;5.93;;
6193;SDS011;3130;41.564;23.280;2023-03-23T09:45:42;7.20;;;6.07;;
6193;SDS011;3130;41.564;23.280;2023-03-23T09:51:08;7.57;;;6.87;;
6193;SDS011;3130;41.564;23.280;2023-03-23T09:53:44;7.67;;;6.13;;
6193;SDS011;3130;41.564;23.280;2023-03-23T09:56:15;8.97;;;6.93;;
6193;SDS011;3130;41.564;23.280;2023-03-23T09:58:45;8.40;;;6.23;;
6193;SDS011;3130;41.564;23.280;2023-03-23T10:01:20;6.90;;;6.10;;
6193;SDS011;3130;41.564;23.280;2023-03-23T10:03:52;6.87;;;6.17;;
6193;SDS011;3130;41.564;23.280;2023-03-23T10:06:31;7.80;;;5.87;;
6193;SDS011;3130;41.564;23.280;2023-03-23T10:08:59;7.53;;;6.33;;
6193;SDS011;3130;41.564;23.280;2023-03-23T10:11:33;8.27;;;6.47;;
6193;SDS011;3130;41.564;23.280;2023-03-23T10:14:11;7.57;;;6.23;;
6193;SDS011;3130;41.564;23.280;2023-03-23T10:16:56;6.63;;;6.03;;
6193;SDS011;3130;41.564;23.280;2023-03-23T10:19:32;7.90;;;6.37;;
6193;SDS011;3130;41.564;23.280;2023-03-23T10:22:09;6.57;;;5.87;;
6193;SDS011;3130;41.564;23.280;2023-03-23T10:24:41;7.27;;;6.03;;
6193;SDS011;3130;41.564;23.280;2023-03-23T10:27:16;6.77;;;6.17;;
6193;SDS011;3130;41.564;23.280;2023-03-23T10:29:51;8.40;;;6.20;;
6193;SDS011;3130;41.564;23.280;2023-03-23T10:32:35;7.13;;;6.43;;
6193;SDS011;3130;41.564;23.280;2023-03-23T10:35:09;6.60;;;5.70;;
6193;SDS011;3130;41.564;23.280;2023-03-23T10:37:44;5.97;;;5.37;;
6193;SDS011;3130;41.564;23.280;2023-03-23T10:40:15;8.67;;;5.87;;
6193;SDS011;3130;41.564;23.280;2023-03-23T10:42:45;8.87;;;6.30;;
6193;SDS011;3130;41.564;23.280;2023-03-23T10:45:15;7.27;;;5.80;;
6193;SDS011;3130;41.564;23.280;2023-03-23T10:47:46;6.23;;;5.63;;
6193;SDS011;3130;41.564;23.280;2023-03-23T10:50:18;8.00;;;5.13;;
6193;SDS011;3130;41.564;23.280;2023-03-23T10:52:53;5.97;;;5.33;;
6193;SDS011;3130;41.564;23.280;2023-03-23T10:55:23;7.57;;;6.23;;
6193;SDS011;3130;41.564;23.280;2023-03-23T10:58:01;7.10;;;4.97;;
6193;SDS011;3130;41.564;23.280;2023-03-23T11:00:30;6.63;;;5.70;;
6193;SDS011;3130;41.564;23.280;2023-03-23T11:02:59;7.83;;;5.63;;
6193;SDS011;3130;41.564;23.280;2023-03-23T11:05:34;5.57;;;5.07;;
6193;SDS011;3130;41.564;23.280;2023-03-23T11:08:10;6.50;;;5.33;;
6193;SDS011;3130;41.564;23.280;2023-03-23T11:10:40;6.67;;;5.57;;
6193;SDS011;3130;41.564;23.280;2023-03-23T11:13:13;8.67;;;5.93;;
6193;SDS011;3130;41.564;23.280;2023-03-23T11:15:43;5.93;;;4.80;;
6193;SDS011;3130;41.564;23.280;2023-03-23T11:18:12;5.57;;;4.70;;
6193;SDS011;3130;41.564;23.280;2023-03-23T11:20:49;6.20;;;4.70;;
6193;SDS011;3130;41.564;23.280;2023-03-23T11:23:22;5.17;;;4.67;;
6193;SDS011;3130;41.564;23.280;2023-03-23T11:25:53;5.03;;;4.47;;
6193;SDS011;3130;41.564;23.280;2023-03-23T11:28:25;5.50;;;4.87;;
6193;SDS011;3130;41.564;23.280;2023-03-23T11:30:59;6.00;;;4.50;;
6193;SDS011;3130;41.564;23.280;2023-03-23T11:33:29;4.97;;;4.10;;
6193;SDS011;3130;41.564;23.280;2023-03-23T11:35:59;5.00;;;4.50;;
6193;SDS011;3130;41.564;23.280;2023-03-23T11:38:28;6.93;;;6.27;;
6193;SDS011;3130;41.564;23.280;2023-03-23T11:40:56;6.93;;;5.53;;
6193;SDS011;3130;41.564;23.280;2023-03-23T11:43:28;6.53;;;5.47;;
6193;SDS011;3130;41.564;23.280;2023-03-23T11:45:58;5.97;;;5.40;;
6193;SDS011;3130;41.564;23.280;2023-03-23T11:48:33;6.70;;;5.13;;
6193;SDS011;3130;41.564;23.280;2023-03-23T11:51:08;7.13;;;6.07;;
6193;SDS011;3130;41.564;23.280;2023-03-23T11:53:47;9.10;;;5.63;;
6193;SDS011;3130;41.564;23.280;2023-03-23T11:56:23;7.27;;;6.10;;
6193;SDS011;3130;41.564;23.280;2023-03-23T11:58:52;7.17;;;5.73;;
6193;SDS011;3130;41.564;23.280;2023-03-23T12:04:21;8.17;;;6.03;;
6193;SDS011;3130;41.564;23.280;2023-03-23T12:07:14;6.90;;;5.27;;
6193;SDS011;3130;41.564;23.280;2023-03-23T12:09:56;6.03;;;5.20;;
6193;SDS011;3130;41.564;23.280;2023-03-23T12:12:32;9.77;;;6.07;;
6193;SDS011;3130;41.564;23.280;2023-03-23T12:15:07;8.23;;;5.47;;
6193;SDS011;3130;41.564;23.280;2023-03-23T12:17:46;5.67;;;5.07;;
6193;SDS011;3130;41.564;23.280;2023-03-23T12:20:26;6.20;;;5.03;;
6193;SDS011;3130;41.564;23.280;2023-03-23T12:23:11;6.13;;;4.87;;
6193;SDS011;3130;41.564;23.280;2023-03-23T12:25:57;6.13;;;5.53;;
6193;SDS011;3130;41.564;23.280;2023-03-23T12:31:39;6.03;;;5.23;;
6193;SDS011;3130;41.564;23.280;2023-03-23T12:34:16;5.67;;;5.13;;
6193;SDS011;3130;41.564;23.280;2023-03-23T12:36:53;6.13;;;4.57;;
6193;SDS011;3130;41.564;23.280;2023-03-23T12:39:43;5.03;;;4.53;;
6193;SDS011;3130;41.564;23.280;2023-03-23T12:42:28;6.30;;;5.63;;
6193;SDS011;3130;41.564;23.280;2023-03-23T12:45:04;9.70;;;5.70;;
6193;SDS011;3130;41.564;23.280;2023-03-23T12:47:44;6.43;;;5.27;;
6193;SDS011;3130;41.564;23.280;2023-03-23T12:50:13;6.87;;;5.67;;
6193;SDS011;3130;41.564;23.280;2023-03-23T12:52:47;7.27;;;5.93;;
6193;SDS011;3130;41.564;23.280;2023-03-23T12:55:20;5.80;;;5.03;;
6193;SDS011;3130;41.564;23.280;2023-03-23T12:57:54;11.60;;;10.57;;
6193;SDS011;3130;41.564;23.280;2023-03-23T13:00:26;7.17;;;6.17;;
6193;SDS011;3130;41.564;23.280;2023-03-23T13:02:57;7.03;;;5.30;;
6193;SDS011;3130;41.564;23.280;2023-03-23T13:05:36;7.77;;;6.30;;
6193;SDS011;3130;41.564;23.280;2023-03-23T13:08:12;7.10;;;5.83;;
6193;SDS011;3130;41.564;23.280;2023-03-23T13:10:44;8.27;;;5.47;;
6193;SDS011;3130;41.564;23.280;2023-03-23T13:13:16;6.40;;;5.73;;
6193;SDS011;3130;41.564;23.280;2023-03-23T13:15:51;10.67;;;5.17;;
6193;SDS011;3130;41.564;23.280;2023-03-23T13:18:31;8.73;;;5.63;;
6193;SDS011;3130;41.564;23.280;2023-03-23T13:21:10;6.40;;;4.80;;
6193;SDS011;3130;41.564;23.280;2023-03-23T13:23:44;8.57;;;5.30;;
6193;SDS011;3130;41.564;23.280;2023-03-23T13:26:14;6.30;;;4.90;;
6193;SDS011;3130;41.564;23.280;2023-03-23T13:28:50;4.80;;;4.10;;
6193;SDS011;3130;41.564;23.280;2023-03-23T13:31:24;7.70;;;4.90;;
6193;SDS011;3130;41.564;23.280;2023-03-23T13:33:58;6.27;;;5.03;;
6193;SDS011;3130;41.564;23.280;2023-03-23T13:36:29;5.90;;;4.43;;
6193;SDS011;3130;41.564;23.280;2023-03-23T13:39:01;6.23;;;5.63;;
6193;SDS011;3130;41.564;23.280;2023-03-23T13:41:32;4.93;;;4.43;;
6193;SDS011;3130;41.564;23.280;2023-03-23T13:44:16;6.77;;;5.50;;
6193;SDS011;3130;41.564;23.280;2023-03-23T13:47:07;5.07;;;4.57;;
6193;SDS011;3130;41.564;23.280;2023-03-23T13:49:47;6.77;;;5.07;;
6193;SDS011;3130;41.564;23.280;2023-03-23T13:52:17;5.63;;;4.67;;
6193;SDS011;3130;41.564;23.280;2023-03-23T13:54:50;6.50;;;5.23;;
6193;SDS011;3130;41.564;23.280;2023-03-23T13:57:20;4.83;;;4.37;;
6193;SDS011;3130;41.564;23.280;2023-03-23T13:59:58;7.07;;;4.90;;
6193;SDS011;3130;41.564;23.280;2023-03-23T14:02:37;5.43;;;4.93;;
6193;SDS011;3130;41.564;23.280;2023-03-23T14:05:11;6.80;;;6.00;;
6193;SDS011;3130;41.564;23.280;2023-03-23T14:07:56;6.00;;;5.37;;
6193;SDS011;3130;41.564;23.280;2023-03-23T14:10:25;6.43;;;5.43;;
6193;SDS011;3130;41.564;23.280;2023-03-23T14:13:00;5.80;;;5.03;;
6193;SDS011;3130;41.564;23.280;2023-03-23T14:15:36;6.10;;;5.50;;
6193;SDS011;3130;41.564;23.280;2023-03-23T14:18:11;6.03;;;5.33;;
6193;SDS011;3130;41.564;23.280;2023-03-23T14:20:40;6.93;;;6.10;;
6193;SDS011;3130;41.564;23.280;2023-03-23T14:23:14;6.63;;;5.90;;
6193;SDS011;3130;41.564;23.280;2023-03-23T14:25:42;8.97;;;5.93;;
6193;SDS011;3130;41.564;23.280;2023-03-23T14:28:16;5.90;;;5.30;;
6193;SDS011;3130;41.564;23.280;2023-03-23T14:30:47;7.38;;;6.00;;
6193;SDS011;3130;41.564;23.280;2023-03-23T14:33:18;7.40;;;5.40;;
6193;SDS011;3130;41.564;23.280;2023-03-23T14:35:46;8.02;;;6.82;;
6193;SDS011;3130;41.564;23.280;2023-03-23T14:38:15;6.95;;;5.88;;
6193;SDS011;3130;41.564;23.280;2023-03-23T14:40:45;7.07;;;5.90;;
6193;SDS011;3130;41.564;23.280;2023-03-23T14:43:14;7.87;;;5.60;;
6193;SDS011;3130;41.564;23.280;2023-03-23T14:45:43;7.00;;;5.97;;
6193;SDS011;3130;41.564;23.280;2023-03-23T14:48:14;7.40;;;6.33;;
6193;SDS011;3130;41.564;23.280;2023-03-23T14:50:48;7.50;;;6.70;;
6193;SDS011;3130;41.564;23.280;2023-03-23T14:53:18;6.80;;;5.77;;
6193;SDS011;3130;41.564;23.280;2023-03-23T14:55:48;7.90;;;5.47;;
6193;SDS011;3130;41.564;23.280;2023-03-23T14:58:17;7.33;;;6.40;;
6193;SDS011;3130;41.564;23.280;2023-03-23T15:00:48;9.43;;;6.53;;
6193;SDS011;3130;41.564;23.280;2023-03-23T15:03:21;7.20;;;6.50;;
6193;SDS011;3130;41.564;23.280;2023-03-23T15:05:50;6.63;;;6.03;;
6193;SDS011;3130;41.564;23.280;2023-03-23T15:08:22;7.53;;;6.27;;
6193;SDS011;3130;41.564;23.280;2023-03-23T15:10:57;6.63;;;5.50;;
6193;SDS011;3130;41.564;23.280;2023-03-23T15:13:29;7.07;;;5.20;;
6193;SDS011;3130;41.564;23.280;2023-03-23T15:16:04;7.50;;;5.70;;
6193;SDS011;3130;41.564;23.280;2023-03-23T15:18:35;7.63;;;6.77;;
6193;SDS011;3130;41.564;23.280;2023-03-23T15:21:08;7.10;;;6.00;;
6193;SDS011;3130;41.564;23.280;2023-03-23T15:23:41;9.40;;;6.47;;
6193;SDS011;3130;41.564;23.280;2023-03-23T15:26:17;6.07;;;5.17;;
6193;SDS011;3130;41.564;23.280;2023-03-23T15:28:58;8.30;;;6.93;;
6193;SDS011;3130;41.564;23.280;2023-03-23T15:31:41;7.33;;;6.50;;
6193;SDS011;3130;41.564;23.280;2023-03-23T15:34:15;8.70;;;6.50;;
6193;SDS011;3130;41.564;23.280;2023-03-23T15:36:56;8.80;;;6.00;;
6193;SDS011;3130;41.564;23.280;2023-03-23T15:39:26;8.97;;;7.63;;
6193;SDS011;3130;41.564;23.280;2023-03-23T15:41:54;10.73;;;6.50;;